sensor_id;sensor_type;location;lat;lon;timestamp;temperature;humidity
21255;DHT22;10785;50.674;17.954;2023-01-25T00:22:16;3.50;99.90
21255;DHT22;10785;50.674;17.954;2023-01-25T00:24:45;3.50;99.90
21255;DHT22;10785;50.674;17.954;2023-01-25T00:27:13;3.50;99.90
21255;DHT22;10785;50.674;17.954;2023-01-25T00:29:42;3.50;99.90
21255;DHT22;10785;50.674;17.954;2023-01-25T00:32:36;3.50;99.90
21255;DHT22;10785;50.674;17.954;2023-01-25T00:35:11;3.50;99.90
21255;DHT22;10785;50.674;17.954;2023-01-25T00:37:43;3.50;99.90
21255;DHT22;10785;50.674;17.954;2023-01-25T00:40:17;3.50;99.90
21255;DHT22;10785;50.674;17.954;2023-01-25T00:42:46;3.60;99.90
21255;DHT22;10785;50.674;17.954;2023-01-25T00:45:14;3.60;99.90
21255;DHT22;10785;50.674;17.954;2023-01-25T00:47:43;3.50;99.90
21255;DHT22;10785;50.674;17.954;2023-01-25T00:50:12;3.50;99.90
21255;DHT22;10785;50.674;17.954;2023-01-25T00:52:42;3.50;99.90
21255;DHT22;10785;50.674;17.954;2023-01-25T00:55:10;3.50;99.90
21255;DHT22;10785;50.674;17.954;2023-01-25T00:57:39;3.60;99.90
21255;DHT22;10785;50.674;17.954;2023-01-25T01:00:09;3.60;99.90
21255;DHT22;10785;50.674;17.954;2023-01-25T01:02:38;3.60;99.90
21255;DHT22;10785;50.674;17.954;2023-01-25T01:05:07;3.60;99.90
21255;DHT22;10785;50.674;17.954;2023-01-25T01:07:36;3.60;99.90
21255;DHT22;10785;50.674;17.954;2023-01-25T01:10:08;3.70;99.90
21255;DHT22;10785;50.674;17.954;2023-01-25T01:12:38;3.60;99.90
21255;DHT22;10785;50.674;17.954;2023-01-25T01:15:08;3.60;83.50
21255;DHT22;10785;50.674;17.954;2023-01-25T01:17:36;3.60;61.20
21255;DHT22;10785;50.674;17.954;2023-01-25T01:20:06;3.70;33.40
21255;DHT22;10785;50.674;17.954;2023-01-25T01:22:35;3.70;21.20
21255;DHT22;10785;50.674;17.954;2023-01-25T01:25:04;3.70;9.60
21255;DHT22;10785;50.674;17.954;2023-01-25T01:27:35;3.70;1.00
21255;DHT22;10785;50.674;17.954;2023-01-25T01:30:04;3.60;1.00
21255;DHT22;10785;50.674;17.954;2023-01-25T01:32:33;3.70;1.00
21255;DHT22;10785;50.674;17.954;2023-01-25T01:35:02;3.60;1.00
21255;DHT22;10785;50.674;17.954;2023-01-25T01:37:31;3.60;1.00
21255;DHT22;10785;50.674;17.954;2023-01-25T01:40:00;3.70;1.00
21255;DHT22;10785;50.674;17.954;2023-01-25T01:42:29;3.70;1.00
21255;DHT22;10785;50.674;17.954;2023-01-25T01:44:59;3.70;1.00
21255;DHT22;10785;50.674;17.954;2023-01-25T01:47:34;3.60;1.00
21255;DHT22;10785;50.674;17.954;2023-01-25T01:50:16;3.70;1.00
21255;DHT22;10785;50.674;17.954;2023-01-25T01:52:46;3.70;1.00
21255;DHT22;10785;50.674;17.954;2023-01-25T01:55:18;3.70;1.00
21255;DHT22;10785;50.674;17.954;2023-01-25T01:57:54;3.70;1.00
21255;DHT22;10785;50.674;17.954;2023-01-25T02:16:20;3.70;1.00
21255;DHT22;10785;50.674;17.954;2023-01-25T02:18:50;3.70;1.00
21255;DHT22;10785;50.674;17.954;2023-01-25T02:21:20;3.70;1.00
21255;DHT22;10785;50.674;17.954;2023-01-25T02:23:53;3.60;99.90
21255;DHT22;10785;50.674;17.954;2023-01-25T02:26:24;3.60;99.90
21255;DHT22;10785;50.674;17.954;2023-01-25T02:28:55;3.60;99.90
21255;DHT22;10785;50.674;17.954;2023-01-25T02:31:25;3.60;99.90
21255;DHT22;10785;50.674;17.954;2023-01-25T02:33:54;3.60;99.90
21255;DHT22;10785;50.674;17.954;2023-01-25T02:36:24;3.60;99.90
21255;DHT22;10785;50.674;17.954;2023-01-25T02:38:58;3.60;99.90
21255;DHT22;10785;50.674;17.954;2023-01-25T02:41:32;3.60;99.90
21255;DHT22;10785;50.674;17.954;2023-01-25T02:44:03;3.60;99.90
21255;DHT22;10785;50.674;17.954;2023-01-25T02:47:04;3.60;1.00
21255;DHT22;10785;50.674;17.954;2023-01-25T02:49:34;3.60;1.00
21255;DHT22;10785;50.674;17.954;2023-01-25T02:52:03;3.60;1.00
21255;DHT22;10785;50.674;17.954;2023-01-25T02:54:32;3.70;1.00
21255;DHT22;10785;50.674;17.954;2023-01-25T02:57:06;3.60;1.00
21255;DHT22;10785;50.674;17.954;2023-01-25T03:02:44;3.60;99.90
21255;DHT22;10785;50.674;17.954;2023-01-25T03:05:13;3.60;99.90
21255;DHT22;10785;50.674;17.954;2023-01-25T03:07:41;3.60;99.90
21255;DHT22;10785;50.674;17.954;2023-01-25T03:10:10;3.50;99.90
21255;DHT22;10785;50.674;17.954;2023-01-25T03:12:40;3.50;11.70
21255;DHT22;10785;50.674;17.954;2023-01-25T03:15:09;3.60;1.00
21255;DHT22;10785;50.674;17.954;2023-01-25T03:17:38;3.60;1.00
21255;DHT22;10785;50.674;17.954;2023-01-25T03:20:09;3.60;1.00
21255;DHT22;10785;50.674;17.954;2023-01-25T03:22:39;3.60;1.00
21255;DHT22;10785;50.674;17.954;2023-01-25T03:25:08;3.60;1.00
21255;DHT22;10785;50.674;17.954;2023-01-25T03:27:45;3.50;1.00
21255;DHT22;10785;50.674;17.954;2023-01-25T03:30:14;3.50;99.90
21255;DHT22;10785;50.674;17.954;2023-01-25T03:32:43;3.50;99.90
21255;DHT22;10785;50.674;17.954;2023-01-25T03:35:17;3.50;1.00
21255;DHT22;10785;50.674;17.954;2023-01-25T03:37:46;3.50;1.00
21255;DHT22;10785;50.674;17.954;2023-01-25T03:40:15;3.50;1.00
21255;DHT22;10785;50.674;17.954;2023-01-25T03:42:50;3.50;1.00
21255;DHT22;10785;50.674;17.954;2023-01-25T03:45:31;3.50;1.00
21255;DHT22;10785;50.674;17.954;2023-01-25T03:48:00;3.50;1.00
21255;DHT22;10785;50.674;17.954;2023-01-25T03:50:29;3.50;1.00
21255;DHT22;10785;50.674;17.954;2023-01-25T03:52:58;3.40;1.00
21255;DHT22;10785;50.674;17.954;2023-01-25T03:55:31;3.40;1.00
21255;DHT22;10785;50.674;17.954;2023-01-25T04:29:41;3.30;1.00
21255;DHT22;10785;50.674;17.954;2023-01-25T04:32:16;3.30;1.00
21255;DHT22;10785;50.674;17.954;2023-01-25T04:34:45;3.30;93.50
21255;DHT22;10785;50.674;17.954;2023-01-25T04:37:16;3.30;99.90
21255;DHT22;10785;50.674;17.954;2023-01-25T04:39:55;3.30;99.90
21255;DHT22;10785;50.674;17.954;2023-01-25T04:42:25;3.30;99.90
21255;DHT22;10785;50.674;17.954;2023-01-25T04:44:57;3.30;99.90
21255;DHT22;10785;50.674;17.954;2023-01-25T04:47:26;3.30;1.00
21255;DHT22;10785;50.674;17.954;2023-01-25T04:49:55;3.30;1.00
21255;DHT22;10785;50.674;17.954;2023-01-25T04:52:29;3.20;1.00
21255;DHT22;10785;50.674;17.954;2023-01-25T04:54:57;3.30;1.00
21255;DHT22;10785;50.674;17.954;2023-01-25T04:57:29;3.30;1.00
21255;DHT22;10785;50.674;17.954;2023-01-25T04:59:59;3.30;1.00
21255;DHT22;10785;50.674;17.954;2023-01-25T05:02:30;3.30;1.00
21255;DHT22;10785;50.674;17.954;2023-01-25T05:04:59;3.30;1.00
21255;DHT22;10785;50.674;17.954;2023-01-25T05:07:29;3.30;1.00
21255;DHT22;10785;50.674;17.954;2023-01-25T05:09:58;3.20;22.00
21255;DHT22;10785;50.674;17.954;2023-01-25T05:12:29;3.30;99.90
21255;DHT22;10785;50.674;17.954;2023-01-25T05:15:03;3.30;99.90
21255;DHT22;10785;50.674;17.954;2023-01-25T05:17:32;3.30;99.90
21255;DHT22;10785;50.674;17.954;2023-01-25T05:20:01;3.30;99.90
21255;DHT22;10785;50.674;17.954;2023-01-25T05:22:31;3.20;99.90
21255;DHT22;10785;50.674;17.954;2023-01-25T05:24:59;3.20;1.00
21255;DHT22;10785;50.674;17.954;2023-01-25T05:27:29;3.20;1.00
21255;DHT22;10785;50.674;17.954;2023-01-25T05:29:57;3.20;1.00
21255;DHT22;10785;50.674;17.954;2023-01-25T05:32:48;3.30;1.00
21255;DHT22;10785;50.674;17.954;2023-01-25T05:35:17;3.20;1.00
21255;DHT22;10785;50.674;17.954;2023-01-25T05:37:48;3.20;1.00
21255;DHT22;10785;50.674;17.954;2023-01-25T05:40:22;3.20;1.00
21255;DHT22;10785;50.674;17.954;2023-01-25T05:42:54;3.20;1.00
21255;DHT22;10785;50.674;17.954;2023-01-25T05:45:25;3.20;1.00
21255;DHT22;10785;50.674;17.954;2023-01-25T05:47:57;3.20;1.00
21255;DHT22;10785;50.674;17.954;2023-01-25T05:50:26;3.10;1.00
21255;DHT22;10785;50.674;17.954;2023-01-25T05:53:05;3.10;1.00
21255;DHT22;10785;50.674;17.954;2023-01-25T05:55:34;3.10;1.00
21255;DHT22;10785;50.674;17.954;2023-01-25T05:58:08;3.10;1.00
21255;DHT22;10785;50.674;17.954;2023-01-25T06:00:38;3.10;18.20
21255;DHT22;10785;50.674;17.954;2023-01-25T06:03:08;3.10;27.50
21255;DHT22;10785;50.674;17.954;2023-01-25T06:05:38;3.10;41.30
21255;DHT22;10785;50.674;17.954;2023-01-25T06:08:07;3.10;67.10
21255;DHT22;10785;50.674;17.954;2023-01-25T06:11:04;3.10;91.50
21255;DHT22;10785;50.674;17.954;2023-01-25T06:13:33;3.10;99.90
21255;DHT22;10785;50.674;17.954;2023-01-25T06:16:04;3.10;99.90
21255;DHT22;10785;50.674;17.954;2023-01-25T06:18:43;3.10;99.90
21255;DHT22;10785;50.674;17.954;2023-01-25T06:21:35;3.10;99.90
21255;DHT22;10785;50.674;17.954;2023-01-25T06:24:04;3.10;99.90
21255;DHT22;10785;50.674;17.954;2023-01-25T06:26:33;3.10;99.90
21255;DHT22;10785;50.674;17.954;2023-01-25T06:29:04;3.10;99.90
21255;DHT22;10785;50.674;17.954;2023-01-25T06:31:32;3.10;99.90
21255;DHT22;10785;50.674;17.954;2023-01-25T06:34:03;3.10;99.90
21255;DHT22;10785;50.674;17.954;2023-01-25T06:36:33;3.10;99.90
21255;DHT22;10785;50.674;17.954;2023-01-25T06:39:02;3.10;99.90
21255;DHT22;10785;50.674;17.954;2023-01-25T06:41:31;3.10;99.90
21255;DHT22;10785;50.674;17.954;2023-01-25T06:44:02;3.10;99.90
21255;DHT22;10785;50.674;17.954;2023-01-25T06:46:31;3.10;99.90
21255;DHT22;10785;50.674;17.954;2023-01-25T06:49:00;3.10;99.90
21255;DHT22;10785;50.674;17.954;2023-01-25T06:51:30;3.10;99.90
21255;DHT22;10785;50.674;17.954;2023-01-25T06:54:01;3.10;99.90
21255;DHT22;10785;50.674;17.954;2023-01-25T06:56:30;3.10;99.90
21255;DHT22;10785;50.674;17.954;2023-01-25T06:59:00;3.10;99.90
21255;DHT22;10785;50.674;17.954;2023-01-25T07:01:28;3.20;99.90
21255;DHT22;10785;50.674;17.954;2023-01-25T07:03:58;3.10;99.90
21255;DHT22;10785;50.674;17.954;2023-01-25T07:06:32;3.20;99.90
21255;DHT22;10785;50.674;17.954;2023-01-25T07:09:02;3.20;99.90
21255;DHT22;10785;50.674;17.954;2023-01-25T07:11:31;3.10;99.90
21255;DHT22;10785;50.674;17.954;2023-01-25T07:14:00;3.10;99.90
21255;DHT22;10785;50.674;17.954;2023-01-25T07:16:29;3.20;99.90
21255;DHT22;10785;50.674;17.954;2023-01-25T07:19:03;3.20;99.90
21255;DHT22;10785;50.674;17.954;2023-01-25T07:21:33;3.20;99.90
21255;DHT22;10785;50.674;17.954;2023-01-25T07:24:03;3.20;99.90
21255;DHT22;10785;50.674;17.954;2023-01-25T07:26:32;3.20;99.90
21255;DHT22;10785;50.674;17.954;2023-01-25T07:29:01;3.20;99.90
21255;DHT22;10785;50.674;17.954;2023-01-25T07:31:30;3.20;99.90
21255;DHT22;10785;50.674;17.954;2023-01-25T07:33:59;3.20;99.90
21255;DHT22;10785;50.674;17.954;2023-01-25T07:36:27;3.20;99.90
21255;DHT22;10785;50.674;17.954;2023-01-25T07:38:58;3.20;99.90
21255;DHT22;10785;50.674;17.954;2023-01-25T07:41:27;3.20;99.90
21255;DHT22;10785;50.674;17.954;2023-01-25T07:43:55;3.20;99.90
21255;DHT22;10785;50.674;17.954;2023-01-25T07:46:39;3.20;99.90
21255;DHT22;10785;50.674;17.954;2023-01-25T07:49:08;3.20;99.90
21255;DHT22;10785;50.674;17.954;2023-01-25T07:51:36;3.20;99.90
21255;DHT22;10785;50.674;17.954;2023-01-25T07:54:09;3.20;99.90
21255;DHT22;10785;50.674;17.954;2023-01-25T07:56:38;3.30;99.90
21255;DHT22;10785;50.674;17.954;2023-01-25T07:59:08;3.30;99.90
21255;DHT22;10785;50.674;17.954;2023-01-25T08:01:38;3.20;99.90
21255;DHT22;10785;50.674;17.954;2023-01-25T08:04:08;3.20;99.90
21255;DHT22;10785;50.674;17.954;2023-01-25T08:06:37;3.20;99.90
21255;DHT22;10785;50.674;17.954;2023-01-25T08:09:10;3.20;99.90
21255;DHT22;10785;50.674;17.954;2023-01-25T08:11:40;3.20;99.90
21255;DHT22;10785;50.674;17.954;2023-01-25T08:14:09;3.30;99.90
21255;DHT22;10785;50.674;17.954;2023-01-25T08:29:18;3.30;18.10
21255;DHT22;10785;50.674;17.954;2023-01-25T08:31:47;3.40;1.00
21255;DHT22;10785;50.674;17.954;2023-01-25T08:34:15;3.40;1.00
21255;DHT22;10785;50.674;17.954;2023-01-25T08:36:44;3.40;1.00
21255;DHT22;10785;50.674;17.954;2023-01-25T08:39:13;3.40;1.00
21255;DHT22;10785;50.674;17.954;2023-01-25T08:41:41;3.40;1.00
21255;DHT22;10785;50.674;17.954;2023-01-25T08:58:58;3.60;1.00
21255;DHT22;10785;50.674;17.954;2023-01-25T09:01:27;3.50;1.00
21255;DHT22;10785;50.674;17.954;2023-01-25T09:03:55;3.60;1.00
21255;DHT22;10785;50.674;17.954;2023-01-25T09:06:24;3.40;99.90
21255;DHT22;10785;50.674;17.954;2023-01-25T09:08:53;3.50;1.00
21255;DHT22;10785;50.674;17.954;2023-01-25T09:11:23;3.60;1.00
21255;DHT22;10785;50.674;17.954;2023-01-25T09:16:33;3.70;1.00
21255;DHT22;10785;50.674;17.954;2023-01-25T09:19:04;3.70;1.00
21255;DHT22;10785;50.674;17.954;2023-01-25T09:21:33;3.80;99.90
21255;DHT22;10785;50.674;17.954;2023-01-25T09:24:04;3.80;1.00
21255;DHT22;10785;50.674;17.954;2023-01-25T09:26:35;3.80;1.00
21255;DHT22;10785;50.674;17.954;2023-01-25T09:29:04;3.90;1.00
21255;DHT22;10785;50.674;17.954;2023-01-25T09:31:36;3.90;1.00
21255;DHT22;10785;50.674;17.954;2023-01-25T09:34:36;3.90;99.90
21255;DHT22;10785;50.674;17.954;2023-01-25T09:37:05;3.90;99.90
21255;DHT22;10785;50.674;17.954;2023-01-25T09:39:33;3.80;99.90
21255;DHT22;10785;50.674;17.954;2023-01-25T09:42:32;3.80;1.00
21255;DHT22;10785;50.674;17.954;2023-01-25T09:45:21;3.90;1.00
21255;DHT22;10785;50.674;17.954;2023-01-25T09:47:59;3.90;1.00
21255;DHT22;10785;50.674;17.954;2023-01-25T09:50:34;3.90;1.00
21255;DHT22;10785;50.674;17.954;2023-01-25T09:53:24;3.90;1.00
21255;DHT22;10785;50.674;17.954;2023-01-25T09:55:57;3.90;99.90
21255;DHT22;10785;50.674;17.954;2023-01-25T09:58:33;3.90;99.90
21255;DHT22;10785;50.674;17.954;2023-01-25T10:01:26;3.90;99.90
21255;DHT22;10785;50.674;17.954;2023-01-25T10:04:12;3.90;99.90
21255;DHT22;10785;50.674;17.954;2023-01-25T10:06:43;3.80;99.90
21255;DHT22;10785;50.674;17.954;2023-01-25T10:09:35;3.70;99.90
21255;DHT22;10785;50.674;17.954;2023-01-25T10:12:14;3.70;99.90
21255;DHT22;10785;50.674;17.954;2023-01-25T10:14:43;3.70;99.90
21255;DHT22;10785;50.674;17.954;2023-01-25T10:17:17;3.70;99.90
21255;DHT22;10785;50.674;17.954;2023-01-25T10:20:02;3.70;91.20
21255;DHT22;10785;50.674;17.954;2023-01-25T10:22:41;3.70;99.90
21255;DHT22;10785;50.674;17.954;2023-01-25T10:25:30;3.80;99.90
21255;DHT22;10785;50.674;17.954;2023-01-25T10:28:19;3.80;94.20
21255;DHT22;10785;50.674;17.954;2023-01-25T10:30:55;3.80;99.90
21255;DHT22;10785;50.674;17.954;2023-01-25T10:33:26;3.80;99.90
21255;DHT22;10785;50.674;17.954;2023-01-25T10:35:58;3.70;99.90
21255;DHT22;10785;50.674;17.954;2023-01-25T10:38:32;3.70;99.90
21255;DHT22;10785;50.674;17.954;2023-01-25T10:41:06;3.60;99.90
21255;DHT22;10785;50.674;17.954;2023-01-25T10:43:35;3.60;99.90
21255;DHT22;10785;50.674;17.954;2023-01-25T10:46:05;3.60;99.90
21255;DHT22;10785;50.674;17.954;2023-01-25T10:48:44;3.60;99.90
21255;DHT22;10785;50.674;17.954;2023-01-25T10:51:28;3.70;99.90
21255;DHT22;10785;50.674;17.954;2023-01-25T10:54:01;3.70;99.90
21255;DHT22;10785;50.674;17.954;2023-01-25T10:56:32;3.80;99.90
21255;DHT22;10785;50.674;17.954;2023-01-25T10:59:07;3.90;99.90
21255;DHT22;10785;50.674;17.954;2023-01-25T11:01:36;3.90;99.90
21255;DHT22;10785;50.674;17.954;2023-01-25T11:04:31;3.90;99.90
21255;DHT22;10785;50.674;17.954;2023-01-25T11:07:03;3.90;50.10
21255;DHT22;10785;50.674;17.954;2023-01-25T11:09:35;3.80;1.00
21255;DHT22;10785;50.674;17.954;2023-01-25T11:12:16;3.70;1.00
21255;DHT22;10785;50.674;17.954;2023-01-25T11:14:46;3.80;3.40
21255;DHT22;10785;50.674;17.954;2023-01-25T11:17:22;3.70;1.00
21255;DHT22;10785;50.674;17.954;2023-01-25T11:20:14;3.80;1.00
21255;DHT22;10785;50.674;17.954;2023-01-25T11:22:52;3.80;1.00
21255;DHT22;10785;50.674;17.954;2023-01-25T11:25:26;3.90;1.00
21255;DHT22;10785;50.674;17.954;2023-01-25T11:28:15;4.00;1.00
21255;DHT22;10785;50.674;17.954;2023-01-25T11:30:45;3.90;1.00
21255;DHT22;10785;50.674;17.954;2023-01-25T11:33:16;3.80;1.00
21255;DHT22;10785;50.674;17.954;2023-01-25T11:35:57;3.70;1.00
21255;DHT22;10785;50.674;17.954;2023-01-25T11:38:30;3.70;1.00
21255;DHT22;10785;50.674;17.954;2023-01-25T11:41:08;3.70;1.00
21255;DHT22;10785;50.674;17.954;2023-01-25T11:43:55;3.70;1.00
21255;DHT22;10785;50.674;17.954;2023-01-25T11:46:35;3.80;1.00
21255;DHT22;10785;50.674;17.954;2023-01-25T11:49:26;3.70;1.00
21255;DHT22;10785;50.674;17.954;2023-01-25T11:52:07;3.80;21.40
21255;DHT22;10785;50.674;17.954;2023-01-25T11:54:46;3.80;1.00
21255;DHT22;10785;50.674;17.954;2023-01-25T11:57:34;3.70;5.20
21255;DHT22;10785;50.674;17.954;2023-01-25T12:03:41;3.90;1.00
21255;DHT22;10785;50.674;17.954;2023-01-25T12:06:14;3.90;1.00
21255;DHT22;10785;50.674;17.954;2023-01-25T12:09:08;3.90;1.00
21255;DHT22;10785;50.674;17.954;2023-01-25T12:11:53;3.90;1.00
21255;DHT22;10785;50.674;17.954;2023-01-25T12:14:35;3.80;1.00
21255;DHT22;10785;50.674;17.954;2023-01-25T12:23:13;3.80;1.00
21255;DHT22;10785;50.674;17.954;2023-01-25T12:25:54;3.80;1.00
21255;DHT22;10785;50.674;17.954;2023-01-25T12:28:30;3.80;1.00
21255;DHT22;10785;50.674;17.954;2023-01-25T12:31:06;3.80;1.00
21255;DHT22;10785;50.674;17.954;2023-01-25T12:33:39;3.80;1.00
21255;DHT22;10785;50.674;17.954;2023-01-25T12:36:12;3.80;1.00
21255;DHT22;10785;50.674;17.954;2023-01-25T12:38:48;3.70;1.00
21255;DHT22;10785;50.674;17.954;2023-01-25T12:41:25;3.70;1.00
21255;DHT22;10785;50.674;17.954;2023-01-25T12:44:02;3.70;1.00
21255;DHT22;10785;50.674;17.954;2023-01-25T12:46:37;3.70;1.00
21255;DHT22;10785;50.674;17.954;2023-01-25T12:49:18;3.70;1.00
21255;DHT22;10785;50.674;17.954;2023-01-25T12:51:49;3.80;1.00
21255;DHT22;10785;50.674;17.954;2023-01-25T12:54:23;3.90;1.00
21255;DHT22;10785;50.674;17.954;2023-01-25T12:57:04;3.90;1.00
21255;DHT22;10785;50.674;17.954;2023-01-25T12:59:41;3.90;1.00
21255;DHT22;10785;50.674;17.954;2023-01-25T13:02:40;3.90;1.00
21255;DHT22;10785;50.674;17.954;2023-01-25T13:05:20;3.90;1.00
21255;DHT22;10785;50.674;17.954;2023-01-25T13:07:55;3.90;99.90
21255;DHT22;10785;50.674;17.954;2023-01-25T13:10:32;3.90;99.90
21255;DHT22;10785;50.674;17.954;2023-01-25T13:13:02;4.00;99.90
21255;DHT22;10785;50.674;17.954;2023-01-25T13:15:45;4.00;99.90
21255;DHT22;10785;50.674;17.954;2023-01-25T13:18:38;3.90;99.90
21255;DHT22;10785;50.674;17.954;2023-01-25T13:21:10;4.00;99.90
21255;DHT22;10785;50.674;17.954;2023-01-25T13:23:40;4.00;99.90
21255;DHT22;10785;50.674;17.954;2023-01-25T13:26:35;4.00;99.90
21255;DHT22;10785;50.674;17.954;2023-01-25T13:35:42;3.90;99.90
21255;DHT22;10785;50.674;17.954;2023-01-25T13:38:29;3.80;99.90
21255;DHT22;10785;50.674;17.954;2023-01-25T13:44:24;3.90;99.90
21255;DHT22;10785;50.674;17.954;2023-01-25T13:46:55;3.90;99.90
21255;DHT22;10785;50.674;17.954;2023-01-25T13:49:30;3.80;99.90
21255;DHT22;10785;50.674;17.954;2023-01-25T13:52:04;3.80;99.90
21255;DHT22;10785;50.674;17.954;2023-01-25T13:54:33;3.80;99.90
21255;DHT22;10785;50.674;17.954;2023-01-25T13:57:12;3.80;99.90
21255;DHT22;10785;50.674;17.954;2023-01-25T13:59:41;3.70;99.90
21255;DHT22;10785;50.674;17.954;2023-01-25T14:02:14;3.70;99.90
21255;DHT22;10785;50.674;17.954;2023-01-25T14:04:43;3.70;99.90
21255;DHT22;10785;50.674;17.954;2023-01-25T14:07:16;3.60;99.90
21255;DHT22;10785;50.674;17.954;2023-01-25T14:09:47;3.70;99.90
21255;DHT22;10785;50.674;17.954;2023-01-25T14:12:33;3.70;99.90
21255;DHT22;10785;50.674;17.954;2023-01-25T14:15:16;3.70;99.90
21255;DHT22;10785;50.674;17.954;2023-01-25T14:17:45;3.70;99.90
21255;DHT22;10785;50.674;17.954;2023-01-25T14:20:18;3.70;99.90
21255;DHT22;10785;50.674;17.954;2023-01-25T14:22:49;3.60;99.90
21255;DHT22;10785;50.674;17.954;2023-01-25T14:25:20;3.60;99.90
21255;DHT22;10785;50.674;17.954;2023-01-25T14:27:53;3.50;99.90
21255;DHT22;10785;50.674;17.954;2023-01-25T14:30:23;3.50;99.90
21255;DHT22;10785;50.674;17.954;2023-01-25T14:48:35;3.50;99.90
21255;DHT22;10785;50.674;17.954;2023-01-25T14:51:09;3.50;99.90
21255;DHT22;10785;50.674;17.954;2023-01-25T14:53:41;3.40;99.90
21255;DHT22;10785;50.674;17.954;2023-01-25T14:56:29;3.40;99.90
21255;DHT22;10785;50.674;17.954;2023-01-25T14:58:58;3.40;99.90
21255;DHT22;10785;50.674;17.954;2023-01-25T15:01:31;3.30;99.90
21255;DHT22;10785;50.674;17.954;2023-01-25T15:04:02;3.30;99.90
21255;DHT22;10785;50.674;17.954;2023-01-25T15:06:30;3.30;99.90
21255;DHT22;10785;50.674;17.954;2023-01-25T15:08:59;3.40;99.90
21255;DHT22;10785;50.674;17.954;2023-01-25T15:11:30;3.30;99.90
21255;DHT22;10785;50.674;17.954;2023-01-25T15:14:19;3.30;99.90
21255;DHT22;10785;50.674;17.954;2023-01-25T15:16:48;3.30;99.90
21255;DHT22;10785;50.674;17.954;2023-01-25T15:19:23;3.30;99.90
21255;DHT22;10785;50.674;17.954;2023-01-25T15:21:53;3.30;99.90
21255;DHT22;10785;50.674;17.954;2023-01-25T15:24:23;3.30;99.90
21255;DHT22;10785;50.674;17.954;2023-01-25T15:26:53;3.30;99.90
21255;DHT22;10785;50.674;17.954;2023-01-25T15:29:24;3.30;99.90
21255;DHT22;10785;50.674;17.954;2023-01-25T15:31:54;3.30;99.90
21255;DHT22;10785;50.674;17.954;2023-01-25T15:34:26;3.30;99.90
21255;DHT22;10785;50.674;17.954;2023-01-25T15:36:58;3.20;99.90
21255;DHT22;10785;50.674;17.954;2023-01-25T15:39:27;3.30;99.90
21255;DHT22;10785;50.674;17.954;2023-01-25T15:41:56;3.20;99.90
21255;DHT22;10785;50.674;17.954;2023-01-25T15:44:24;3.20;99.90
21255;DHT22;10785;50.674;17.954;2023-01-25T15:46:53;3.20;99.90
21255;DHT22;10785;50.674;17.954;2023-01-25T15:49:26;3.20;99.90
21255;DHT22;10785;50.674;17.954;2023-01-25T15:51:55;3.20;99.90
21255;DHT22;10785;50.674;17.954;2023-01-25T15:54:24;3.20;99.90
21255;DHT22;10785;50.674;17.954;2023-01-25T15:56:55;3.20;99.90
21255;DHT22;10785;50.674;17.954;2023-01-25T15:59:25;3.20;99.90
21255;DHT22;10785;50.674;17.954;2023-01-25T16:01:54;3.20;99.90
21255;DHT22;10785;50.674;17.954;2023-01-25T16:04:22;3.20;99.90
21255;DHT22;10785;50.674;17.954;2023-01-25T16:36:02;3.20;99.90
21255;DHT22;10785;50.674;17.954;2023-01-25T16:38:31;3.20;99.90
21255;DHT22;10785;50.674;17.954;2023-01-25T16:41:01;3.20;99.90
21255;DHT22;10785;50.674;17.954;2023-01-25T16:43:30;3.20;99.90
21255;DHT22;10785;50.674;17.954;2023-01-25T16:46:14;3.10;99.90
21255;DHT22;10785;50.674;17.954;2023-01-25T16:48:44;3.10;99.90
21255;DHT22;10785;50.674;17.954;2023-01-25T16:51:19;3.10;99.90
21255;DHT22;10785;50.674;17.954;2023-01-25T16:53:49;3.10;99.90
21255;DHT22;10785;50.674;17.954;2023-01-25T16:56:21;3.20;99.90
21255;DHT22;10785;50.674;17.954;2023-01-25T16:58:51;3.20;99.90
21255;DHT22;10785;50.674;17.954;2023-01-25T17:01:22;3.20;99.90
21255;DHT22;10785;50.674;17.954;2023-01-25T17:03:51;3.20;99.90
21255;DHT22;10785;50.674;17.954;2023-01-25T17:06:24;3.20;99.90
21255;DHT22;10785;50.674;17.954;2023-01-25T17:08:55;3.20;99.90
21255;DHT22;10785;50.674;17.954;2023-01-25T17:11:25;3.20;99.90
21255;DHT22;10785;50.674;17.954;2023-01-25T17:13:58;3.20;99.90
21255;DHT22;10785;50.674;17.954;2023-01-25T17:16:28;3.20;99.90
21255;DHT22;10785;50.674;17.954;2023-01-25T17:18:59;3.20;99.90
21255;DHT22;10785;50.674;17.954;2023-01-25T17:21:30;3.20;99.90
21255;DHT22;10785;50.674;17.954;2023-01-25T17:24:00;3.20;99.90
21255;DHT22;10785;50.674;17.954;2023-01-25T17:26:29;3.10;99.90
21255;DHT22;10785;50.674;17.954;2023-01-25T17:29:00;3.10;99.90
21255;DHT22;10785;50.674;17.954;2023-01-25T17:31:31;3.10;99.90
21255;DHT22;10785;50.674;17.954;2023-01-25T17:34:02;3.10;99.90
21255;DHT22;10785;50.674;17.954;2023-01-25T17:36:32;3.10;99.90
21255;DHT22;10785;50.674;17.954;2023-01-25T17:39:02;3.10;99.90
21255;DHT22;10785;50.674;17.954;2023-01-25T17:41:31;3.10;99.90
21255;DHT22;10785;50.674;17.954;2023-01-25T17:44:00;3.10;99.90
21255;DHT22;10785;50.674;17.954;2023-01-25T17:46:30;3.10;99.90
21255;DHT22;10785;50.674;17.954;2023-01-25T17:49:02;3.10;99.90
21255;DHT22;10785;50.674;17.954;2023-01-25T17:51:33;3.00;99.90
21255;DHT22;10785;50.674;17.954;2023-01-25T17:54:06;3.00;1.00
21255;DHT22;10785;50.674;17.954;2023-01-25T17:56:35;3.00;1.00
21255;DHT22;10785;50.674;17.954;2023-01-25T17:59:08;3.00;1.00
21255;DHT22;10785;50.674;17.954;2023-01-25T18:01:38;3.00;1.00
21255;DHT22;10785;50.674;17.954;2023-01-25T18:04:09;2.90;1.00
21255;DHT22;10785;50.674;17.954;2023-01-25T18:06:40;2.90;1.00
21255;DHT22;10785;50.674;17.954;2023-01-25T18:09:09;2.90;1.00
21255;DHT22;10785;50.674;17.954;2023-01-25T18:11:38;2.90;1.00
21255;DHT22;10785;50.674;17.954;2023-01-25T18:14:09;2.90;1.00
21255;DHT22;10785;50.674;17.954;2023-01-25T18:16:40;2.90;1.00
21255;DHT22;10785;50.674;17.954;2023-01-25T18:19:09;2.80;1.00
21255;DHT22;10785;50.674;17.954;2023-01-25T18:21:39;2.80;1.00
21255;DHT22;10785;50.674;17.954;2023-01-25T18:24:23;2.80;1.00
21255;DHT22;10785;50.674;17.954;2023-01-25T18:26:57;2.80;1.00
21255;DHT22;10785;50.674;17.954;2023-01-25T18:29:34;2.80;1.00
21255;DHT22;10785;50.674;17.954;2023-01-25T18:32:06;2.80;1.00
21255;DHT22;10785;50.674;17.954;2023-01-25T18:34:35;2.80;1.00
21255;DHT22;10785;50.674;17.954;2023-01-25T18:37:05;2.80;1.00
21255;DHT22;10785;50.674;17.954;2023-01-25T18:39:46;2.80;1.00
21255;DHT22;10785;50.674;17.954;2023-01-25T18:42:19;2.80;1.00
21255;DHT22;10785;50.674;17.954;2023-01-25T18:44:48;2.80;1.00
21255;DHT22;10785;50.674;17.954;2023-01-25T18:47:18;2.80;1.00
21255;DHT22;10785;50.674;17.954;2023-01-25T18:49:48;2.90;99.90
21255;DHT22;10785;50.674;17.954;2023-01-25T18:52:20;2.80;99.90
21255;DHT22;10785;50.674;17.954;2023-01-25T18:54:49;2.80;99.90
21255;DHT22;10785;50.674;17.954;2023-01-25T18:57:18;2.80;99.90
21255;DHT22;10785;50.674;17.954;2023-01-25T18:59:47;2.80;99.90